aviador You're here:

SBPS Decoded Metar

PORTO SEGURO in BRAZIL
Report Time2018-04-24 14:00:00
UTC Time2018-04-24 14:02:01
Flight Rules vfr VFR
Wind150° at 05 kt
W.Decomp.*RWY 10: 1.5 kt HW 4.8 kt RCW
W.Rank150° ranks 23
Current wind is above 150° avg. (4.8)
Visibility9999 m
Phenomena:N/A
Clouds:Scattered 015 Hf
Scattered 020 Hf
Expected CloudBase > 2,400 ft AGL from Temp-Dew spread
CeilingNone
Temp28°C (ISA +13)
Dew Point22°C (70% RH)
Heat Index30.7°C
QNH1018 hPa
Density Alt1,880 ft
Elevation167 ft
Report Wrong Elevation
Raw Report
METAR SBPS 241400Z 15005KT 090V220 9999 SCT015 SCT020 28/22 Q1018=

Extra information for SBPS:More info

Metar Taf Metar & Taf Last 4 Metars F.Rules Stats Wind Profile Meteogram Temp Stats Airport Information Weather charts Add Link Nearby VenuesMetar ALERT Operation Metar Decoded Social comments